createdAt,value
2023-10-11T00:01:55.098Z,10.52
2023-10-11T00:04:28.560Z,10.48
2023-10-11T00:06:59.105Z,10.47
2023-10-11T00:09:36.487Z,10.41
2023-10-11T00:12:13.383Z,10.35
2023-10-11T00:14:44.383Z,10.36
2023-10-11T00:17:16.178Z,10.29
2023-10-11T00:19:47.906Z,10.23
2023-10-11T00:22:19.175Z,10.20
2023-10-11T00:24:49.677Z,10.17
2023-10-11T00:27:23.146Z,10.15
2023-10-11T00:29:54.042Z,10.20
2023-10-11T00:32:24.742Z,10.29
2023-10-11T00:34:55.449Z,10.34
2023-10-11T00:37:28.458Z,10.28
2023-10-11T00:39:59.102Z,10.27
2023-10-11T00:42:33.406Z,10.28
2023-10-11T00:45:04.171Z,10.25
2023-10-11T00:47:41.897Z,10.12
2023-10-11T00:50:15.957Z,10.11
2023-10-11T00:52:47.211Z,10.13
2023-10-11T00:55:20.637Z,10.09
2023-10-11T00:57:54.972Z,10.09
2023-10-11T01:00:26.502Z,10.09
2023-10-11T01:02:57.849Z,10.10
2023-10-11T01:05:28.572Z,10.07
2023-10-11T01:07:59.645Z,10.28
2023-10-11T01:10:30.847Z,10.39
2023-10-11T01:13:04.124Z,10.74
2023-10-11T01:15:34.690Z,10.71
2023-10-11T01:18:05.296Z,10.50
2023-10-11T01:20:42.970Z,10.45
2023-10-11T01:23:13.601Z,10.36
2023-10-11T01:25:44.945Z,10.33
2023-10-11T01:28:15.627Z,10.38
2023-10-11T01:30:48.757Z,10.36
2023-10-11T01:33:20.212Z,10.33
2023-10-11T01:35:53.941Z,10.23
2023-10-11T01:38:25.634Z,10.20
2023-10-11T01:40:59.416Z,10.19
2023-10-11T01:43:30.911Z,10.12
2023-10-11T01:46:01.507Z,10.09
2023-10-11T01:48:32.496Z,10.03
2023-10-11T01:51:10.730Z,9.99
2023-10-11T01:53:42.064Z,9.98
2023-10-11T01:56:14.856Z,9.95
2023-10-11T01:58:45.970Z,9.94
2023-10-11T02:01:27.992Z,9.98
2023-10-11T02:04:04.498Z,9.95
2023-10-11T02:06:39.659Z,9.91
2023-10-11T02:09:10.976Z,9.90
2023-10-11T02:11:43.288Z,9.84
2023-10-11T02:14:15.371Z,9.77
2023-10-11T02:16:46.093Z,9.76
2023-10-11T02:19:17.435Z,9.71
2023-10-11T02:21:55.730Z,9.69
2023-10-11T02:24:28.356Z,9.67
2023-10-11T02:26:59.892Z,9.64
2023-10-11T02:29:30.740Z,9.61
2023-10-11T02:32:04.931Z,9.58
2023-10-11T02:34:37.054Z,9.56
2023-10-11T02:37:12.539Z,9.48
2023-10-11T02:39:47.088Z,9.44
2023-10-11T02:42:20.962Z,9.41
2023-10-11T02:44:51.900Z,9.36
2023-10-11T02:47:24.617Z,9.50
2023-10-11T02:49:55.948Z,9.52
2023-10-11T02:52:37.223Z,9.59
2023-10-11T02:55:18.009Z,9.64
2023-10-11T02:57:49.767Z,9.55
2023-10-11T03:00:26.619Z,9.45
2023-10-11T03:02:58.965Z,9.40
2023-10-11T03:05:31.128Z,9.31
2023-10-11T03:08:17.070Z,9.24
2023-10-11T03:10:54.548Z,9.24
2023-10-11T03:13:30.776Z,9.23
2023-10-11T03:16:03.023Z,9.22
2023-10-11T03:18:41.079Z,9.24
2023-10-11T03:21:20.834Z,9.31
2023-10-11T03:23:55.990Z,9.27
2023-10-11T03:26:32.815Z,9.22
2023-10-11T03:29:05.284Z,9.23
2023-10-11T03:31:41.675Z,9.28
2023-10-11T03:34:16.215Z,9.29
2023-10-11T03:36:51.093Z,9.54
2023-10-11T03:39:40.974Z,9.58
2023-10-11T03:42:16.153Z,9.51
2023-10-11T03:44:49.158Z,9.54
2023-10-11T03:47:25.840Z,9.65
2023-10-11T03:49:56.492Z,9.63
2023-10-11T03:52:32.056Z,9.53
2023-10-11T03:55:10.961Z,9.41
2023-10-11T03:57:43.066Z,9.36
2023-10-11T04:00:27.372Z,9.28
2023-10-11T04:02:59.125Z,9.36
2023-10-11T04:05:36.415Z,9.34
2023-10-11T04:08:12.230Z,9.24
2023-10-11T04:10:50.968Z,9.17
2023-10-11T04:13:26.660Z,9.21
2023-10-11T04:16:00.880Z,9.25
2023-10-11T04:18:39.260Z,9.30
2023-10-11T04:21:27.600Z,9.21
2023-10-11T04:23:59.897Z,9.26
2023-10-11T04:26:38.112Z,9.23
2023-10-11T04:29:18.685Z,9.15
2023-10-11T04:32:11.216Z,9.14
2023-10-11T04:34:49.689Z,9.24
2023-10-11T04:37:29.335Z,9.15
2023-10-11T04:40:17.979Z,9.12
2023-10-11T04:43:06.061Z,9.08
2023-10-11T04:45:55.896Z,9.04
2023-10-11T04:48:37.954Z,8.98
2023-10-11T04:51:23.903Z,8.93
2023-10-11T04:54:00.931Z,8.92
2023-10-11T04:56:45.639Z,8.89
2023-10-11T04:59:27.394Z,8.82
2023-10-11T05:02:10.105Z,8.70
2023-10-11T05:04:45.973Z,8.69
2023-10-11T05:07:21.238Z,8.64
2023-10-11T05:09:58.395Z,8.61
2023-10-11T05:12:29.160Z,8.53
2023-10-11T05:15:08.679Z,8.42
2023-10-11T05:17:52.341Z,8.35
2023-10-11T05:20:46.431Z,8.30
2023-10-11T05:23:18.186Z,8.19
2023-10-11T05:26:00.640Z,8.22
2023-10-11T05:28:29.003Z,8.32
2023-10-11T05:31:20.646Z,8.20
2023-10-11T05:34:03.880Z,8.19
2023-10-11T05:36:58.917Z,8.27
2023-10-11T05:39:41.901Z,8.16
2023-10-11T05:42:24.888Z,8.24
2023-10-11T05:45:07.919Z,8.22
2023-10-11T05:47:53.595Z,8.15
2023-10-11T05:50:36.639Z,8.22
2023-10-11T05:53:07.499Z,8.27
2023-10-11T05:55:38.482Z,8.37
2023-10-11T05:58:09.702Z,8.53
2023-10-11T06:00:40.843Z,8.58
2023-10-11T06:03:16.497Z,8.67
2023-10-11T06:05:47.293Z,8.83
2023-10-11T06:08:19.616Z,8.90
2023-10-11T06:10:52.988Z,9.03
2023-10-11T06:13:24.009Z,9.12
2023-10-11T06:16:04.240Z,9.14
2023-10-11T06:18:40.937Z,9.06
2023-10-11T06:21:20.517Z,9.10
2023-10-11T06:23:53.175Z,9.22
2023-10-11T06:26:53.458Z,9.53
2023-10-11T06:29:24.508Z,10.03
2023-10-11T06:32:09.325Z,10.35
2023-10-11T06:34:49.159Z,10.96
2023-10-11T06:37:25.732Z,11.34
2023-10-11T06:40:15.239Z,11.71
2023-10-11T06:42:44.090Z,12.03
2023-10-11T06:45:21.664Z,12.28
2023-10-11T06:47:52.515Z,12.54
2023-10-11T06:50:25.978Z,12.92
2023-10-11T06:52:56.771Z,13.25
2023-10-11T06:55:27.352Z,13.34
2023-10-11T06:58:04.031Z,13.53
2023-10-11T07:00:38.752Z,13.62
2023-10-11T07:03:23.696Z,13.95
2023-10-11T07:06:00.855Z,14.30
2023-10-11T07:08:37.861Z,14.51
2023-10-11T07:11:17.754Z,14.63
2023-10-11T07:13:56.663Z,14.92
2023-10-11T07:16:29.071Z,15.20
2023-10-11T07:19:00.815Z,15.46
2023-10-11T07:21:50.118Z,15.72
2023-10-11T07:24:33.344Z,15.79
2023-10-11T07:27:14.143Z,16.07
2023-10-11T07:29:49.562Z,16.20
2023-10-11T07:32:21.540Z,16.43
2023-10-11T07:34:56.417Z,16.58
2023-10-11T07:37:29.968Z,16.83
2023-10-11T07:40:11.132Z,16.91
2023-10-11T07:42:42.151Z,17.05
2023-10-11T07:45:14.793Z,17.39
2023-10-11T07:47:49.569Z,17.52
2023-10-11T07:50:24.221Z,17.89
2023-10-11T07:52:59.343Z,18.27
2023-10-11T07:55:29.945Z,18.50
2023-10-11T07:58:04.164Z,18.51
2023-10-11T08:00:35.178Z,18.37
2023-10-11T08:03:07.184Z,18.85
2023-10-11T08:05:46.587Z,19.06
2023-10-11T08:08:21.493Z,19.18
2023-10-11T08:10:53.967Z,19.34
2023-10-11T08:13:28.059Z,19.24
2023-10-11T08:16:00.609Z,18.88
2023-10-11T08:18:33.645Z,18.28
2023-10-11T08:21:04.724Z,17.91
2023-10-11T08:23:44.355Z,17.51
2023-10-11T08:26:19.221Z,17.16
2023-10-11T08:28:53.330Z,16.97
2023-10-11T08:31:36.581Z,16.88
2023-10-11T08:34:07.616Z,16.96
2023-10-11T08:36:38.455Z,17.24
2023-10-11T08:39:14.741Z,17.89
2023-10-11T08:41:47.719Z,19.00
2023-10-11T08:44:26.606Z,19.83
2023-10-11T08:46:58.070Z,20.87
2023-10-11T08:49:29.071Z,21.84
2023-10-11T08:52:01.660Z,22.69
2023-10-11T08:54:35.679Z,23.70
2023-10-11T08:57:08.037Z,24.50
2023-10-11T08:59:52.794Z,24.53
2023-10-11T09:02:24.479Z,25.16
2023-10-11T09:05:05.608Z,25.18
2023-10-11T09:07:41.319Z,25.30
2023-10-11T09:10:33.972Z,25.00
2023-10-11T09:13:10.262Z,25.07
2023-10-11T09:15:44.588Z,25.59
2023-10-11T09:18:19.211Z,25.87
2023-10-11T09:20:57.402Z,25.96
2023-10-11T09:23:38.784Z,26.31
2023-10-11T09:26:15.315Z,26.47
2023-10-11T09:28:57.852Z,27.02
2023-10-11T09:31:28.632Z,27.89
2023-10-11T09:34:01.403Z,27.92
2023-10-11T09:36:32.810Z,28.46
2023-10-11T09:39:05.146Z,28.17
2023-10-11T09:41:42.660Z,28.46
2023-10-11T09:44:18.437Z,29.24
2023-10-11T09:46:51.201Z,29.86
2023-10-11T09:49:26.980Z,30.23
2023-10-11T09:52:01.198Z,30.26
2023-10-11T09:54:31.857Z,30.34
2023-10-11T09:57:17.414Z,30.64
2023-10-11T10:00:02.076Z,31.48
2023-10-11T10:02:46.205Z,32.58
2023-10-11T10:05:18.372Z,32.49
2023-10-11T10:07:48.768Z,32.84
2023-10-11T10:10:27.443Z,33.29
2023-10-11T10:13:10.957Z,33.70
2023-10-11T10:15:53.971Z,34.33
2023-10-11T10:18:28.700Z,34.78
2023-10-11T10:21:06.508Z,35.41
2023-10-11T10:23:39.597Z,35.52
2023-10-11T10:26:40.392Z,34.17
2023-10-11T10:29:17.154Z,33.51
2023-10-11T10:32:10.256Z,32.77
2023-10-11T10:34:43.624Z,31.96
2023-10-11T10:38:05.221Z,32.78
2023-10-11T10:40:38.719Z,32.63
2023-10-11T10:43:29.357Z,32.80
2023-10-11T10:46:04.401Z,33.27
2023-10-11T10:48:41.111Z,33.67
2023-10-11T10:51:12.922Z,33.94
2023-10-11T10:53:43.474Z,33.62
2023-10-11T10:56:25.475Z,32.84
2023-10-11T10:59:08.819Z,31.27
2023-10-11T11:01:41.924Z,30.50
2023-10-11T11:04:10.392Z,30.02
2023-10-11T11:06:46.077Z,31.00
2023-10-11T11:09:16.785Z,31.37
2023-10-11T11:11:47.915Z,31.79
2023-10-11T11:14:21.099Z,31.38
2023-10-11T11:17:11.411Z,31.13
2023-10-11T11:19:39.195Z,31.15
2023-10-11T11:22:13.506Z,31.54
2023-10-11T11:24:43.142Z,31.91
2023-10-11T11:27:20.175Z,32.08
2023-10-11T11:29:51.863Z,29.81
2023-10-11T11:32:41.453Z,28.52
2023-10-11T11:35:11.833Z,29.52
2023-10-11T11:37:43.533Z,30.31
2023-10-11T11:40:26.112Z,29.95
2023-10-11T11:42:56.835Z,28.72
2023-10-11T11:45:27.713Z,29.12
2023-10-11T11:48:01.874Z,28.62
2023-10-11T11:50:32.963Z,28.55
2023-10-11T11:53:04.146Z,27.43
2023-10-11T11:55:33.329Z,27.15
2023-10-11T11:58:04.117Z,26.58
2023-10-11T12:00:40.723Z,26.16
2023-10-11T12:03:13.856Z,26.29
2023-10-11T12:05:42.493Z,26.39
2023-10-11T12:08:20.229Z,26.19
2023-10-11T12:10:49.150Z,26.35
2023-10-11T12:13:24.628Z,25.70
2023-10-11T12:15:57.217Z,25.73
2023-10-11T12:18:34.678Z,25.77
2023-10-11T12:21:12.839Z,25.61
2023-10-11T12:23:48.361Z,25.78
2023-10-11T12:26:22.236Z,25.41
2023-10-11T12:28:53.225Z,25.75
2023-10-11T12:31:23.562Z,25.93
2023-10-11T12:33:56.604Z,25.60
2023-10-11T12:36:30.105Z,25.81
2023-10-11T12:39:02.659Z,25.81
2023-10-11T12:41:34.005Z,26.06
2023-10-11T12:44:04.675Z,26.03
2023-10-11T12:46:34.897Z,26.04
2023-10-11T12:49:14.369Z,26.35
2023-10-11T12:51:46.066Z,26.38
2023-10-11T12:54:17.812Z,26.24
2023-10-11T12:56:48.217Z,26.37
2023-10-11T12:59:21.182Z,26.30
2023-10-11T13:01:54.123Z,26.21
2023-10-11T13:04:32.136Z,26.35
2023-10-11T13:07:03.201Z,25.97
2023-10-11T13:09:37.381Z,26.05
2023-10-11T13:12:09.447Z,26.27
2023-10-11T13:14:39.799Z,26.41
2023-10-11T13:17:16.926Z,26.39
2023-10-11T13:19:52.522Z,26.19
2023-10-11T13:22:22.740Z,26.42
2023-10-11T13:24:52.971Z,26.42
2023-10-11T13:27:23.483Z,26.04
2023-10-11T13:29:54.198Z,26.13
2023-10-11T13:32:24.538Z,26.29
2023-10-11T13:34:57.394Z,26.46
2023-10-11T13:37:29.321Z,26.45
2023-10-11T13:40:06.968Z,26.11
2023-10-11T13:42:38.868Z,26.14
2023-10-11T13:45:15.937Z,26.32
2023-10-11T13:47:51.545Z,26.25
2023-10-11T13:50:36.561Z,26.40
2023-10-11T13:53:07.043Z,26.31
2023-10-11T13:55:42.535Z,26.27
2023-10-11T13:58:17.897Z,26.36
2023-10-11T14:01:03.262Z,26.39
2023-10-11T14:03:57.110Z,26.39
2023-10-11T14:06:44.021Z,26.60
2023-10-11T14:09:28.828Z,26.42
2023-10-11T14:11:59.313Z,26.45
2023-10-11T14:14:40.715Z,26.32
2023-10-11T14:17:17.092Z,26.34
2023-10-11T14:19:49.509Z,26.33
2023-10-11T14:22:23.222Z,26.22
2023-10-11T14:24:53.846Z,26.18
2023-10-11T14:27:24.138Z,26.15
2023-10-11T14:29:54.969Z,26.01
2023-10-11T14:32:25.361Z,26.01
2023-10-11T14:34:55.639Z,26.00
2023-10-11T14:37:30.896Z,26.20
2023-10-11T14:40:01.242Z,26.13
2023-10-11T14:42:32.494Z,26.24
2023-10-11T14:45:02.930Z,26.19
2023-10-11T14:47:33.648Z,25.97
2023-10-11T14:50:12.311Z,25.83
2023-10-11T14:52:47.829Z,25.92
2023-10-11T14:55:21.594Z,25.89
2023-10-11T14:57:52.603Z,25.85
2023-10-11T15:00:25.436Z,25.82
2023-10-11T15:02:58.323Z,25.64
2023-10-11T15:05:35.686Z,25.51
2023-10-11T15:08:09.166Z,25.55
2023-10-11T15:10:40.498Z,25.40
2023-10-11T15:13:12.819Z,25.48
2023-10-11T15:15:43.598Z,25.34
2023-10-11T15:18:14.178Z,25.24
2023-10-11T15:20:44.766Z,25.14
2023-10-11T15:23:19.180Z,25.21
2023-10-11T15:25:50.299Z,25.01
2023-10-11T15:28:21.494Z,24.97
2023-10-11T15:30:51.984Z,25.00
2023-10-11T15:33:23.243Z,24.88
2023-10-11T15:35:59.869Z,24.74
2023-10-11T15:38:34.105Z,24.58
2023-10-11T15:41:06.664Z,24.57
2023-10-11T15:43:40.876Z,24.46
2023-10-11T15:46:11.555Z,24.37
2023-10-11T15:48:42.829Z,24.29
2023-10-11T15:51:20.168Z,24.19
2023-10-11T15:53:54.378Z,24.06
2023-10-11T15:56:25.014Z,23.95
2023-10-11T15:58:55.352Z,23.88
2023-10-11T16:01:25.876Z,23.76
2023-10-11T16:03:57.387Z,23.61
2023-10-11T16:06:27.799Z,23.52
2023-10-11T16:09:01.297Z,23.31
2023-10-11T16:11:32.196Z,23.08
2023-10-11T16:14:02.486Z,22.90
2023-10-11T16:16:32.886Z,22.72
2023-10-11T16:19:03.148Z,22.62
2023-10-11T16:21:35.475Z,22.49
2023-10-11T16:24:10.671Z,22.26
2023-10-11T16:26:41.794Z,22.12
2023-10-11T16:29:12.219Z,21.94
2023-10-11T16:31:43.135Z,21.71
2023-10-11T16:34:14.606Z,21.61
2023-10-11T16:36:46.249Z,21.44
2023-10-11T16:39:34.849Z,21.27
2023-10-11T16:42:07.040Z,21.10
2023-10-11T16:44:40.242Z,20.93
2023-10-11T16:47:10.638Z,20.79
2023-10-11T16:49:42.130Z,20.57
2023-10-11T16:52:13.535Z,20.33
2023-10-11T16:54:47.059Z,20.27
2023-10-11T16:57:21.363Z,20.10
2023-10-11T16:59:53.091Z,20.07
2023-10-11T17:02:26.810Z,19.97
2023-10-11T17:04:57.432Z,19.93
2023-10-11T17:07:28.176Z,19.79
2023-10-11T17:10:01.237Z,19.65
2023-10-11T17:12:31.914Z,19.49
2023-10-11T17:15:02.135Z,19.41
2023-10-11T17:17:32.730Z,19.34
2023-10-11T17:20:03.093Z,19.22
2023-10-11T17:22:36.260Z,19.07
2023-10-11T17:25:10.345Z,19.02
2023-10-11T17:27:40.688Z,18.97
2023-10-11T17:30:14.808Z,18.89
2023-10-11T17:32:45.134Z,18.84
2023-10-11T17:35:18.164Z,18.71
2023-10-11T17:37:49.652Z,18.53
2023-10-11T17:40:28.599Z,18.43
2023-10-11T17:42:59.946Z,18.35
2023-10-11T17:45:30.903Z,18.23
2023-10-11T17:48:04.181Z,18.13
2023-10-11T17:50:35.407Z,17.99
2023-10-11T17:53:06.184Z,17.85
2023-10-11T17:55:43.711Z,17.78
2023-10-11T17:58:14.895Z,17.60
2023-10-11T18:00:46.586Z,17.56
2023-10-11T18:03:18.333Z,17.43
2023-10-11T18:05:50.066Z,17.33
2023-10-11T18:08:20.378Z,17.32
2023-10-11T18:10:53.310Z,17.32
2023-10-11T18:13:25.169Z,17.24
2023-10-11T18:15:55.751Z,17.15
2023-10-11T18:18:26.612Z,17.12
2023-10-11T18:20:57.044Z,17.08
2023-10-11T18:23:29.074Z,16.86
2023-10-11T18:26:02.011Z,16.85
2023-10-11T18:28:33.829Z,16.84
2023-10-11T18:31:12.661Z,16.77
2023-10-11T18:33:43.181Z,16.79
2023-10-11T18:36:13.614Z,16.80
2023-10-11T18:38:45.333Z,16.74
2023-10-11T18:41:18.199Z,16.69
2023-10-11T18:43:48.469Z,16.77
2023-10-11T18:46:18.814Z,16.75
2023-10-11T18:48:49.170Z,16.62
2023-10-11T18:51:20.983Z,16.58
2023-10-11T18:53:51.790Z,16.49
2023-10-11T18:56:25.725Z,16.41
2023-10-11T18:58:56.387Z,16.30
2023-10-11T19:01:28.073Z,16.18
2023-10-11T19:03:58.833Z,16.14
2023-10-11T19:06:29.737Z,16.08
2023-10-11T19:09:00.350Z,16.01
2023-10-11T19:11:35.627Z,15.91
2023-10-11T19:14:05.894Z,15.64
2023-10-11T19:16:36.653Z,15.60
2023-10-11T19:19:07.120Z,15.45
2023-10-11T19:21:37.615Z,15.38
2023-10-11T19:24:10.070Z,15.35
2023-10-11T19:26:43.083Z,15.31
2023-10-11T19:29:13.369Z,15.25
2023-10-11T19:31:43.775Z,15.15
2023-10-11T19:34:14.191Z,15.08
2023-10-11T19:36:44.752Z,15.04
2023-10-11T19:39:16.929Z,14.93
2023-10-11T19:41:49.809Z,14.90
2023-10-11T19:44:20.207Z,14.81
2023-10-11T19:46:50.568Z,14.71
2023-10-11T19:49:20.870Z,14.62
2023-10-11T19:51:52.090Z,14.58
2023-10-11T19:54:22.944Z,14.50
2023-10-11T19:56:55.832Z,14.48
2023-10-11T19:59:26.551Z,14.47
2023-10-11T20:01:57.138Z,14.51
2023-10-11T20:04:27.466Z,14.55
2023-10-11T20:06:58.653Z,14.58
2023-10-11T20:09:30.521Z,14.59
2023-10-11T20:12:03.371Z,14.62
2023-10-11T20:14:33.698Z,14.64
2023-10-11T20:17:07.112Z,14.64
2023-10-11T20:19:35.898Z,14.60
2023-10-11T20:22:06.319Z,14.52
2023-10-11T20:24:36.715Z,14.46
2023-10-11T20:27:10.808Z,14.37
2023-10-11T20:29:42.017Z,14.26
2023-10-11T20:32:13.379Z,14.13
2023-10-11T20:34:43.764Z,13.96
2023-10-11T20:37:14.232Z,13.94
2023-10-11T20:39:44.540Z,14.00
2023-10-11T20:42:17.694Z,14.06
2023-10-11T20:44:48.376Z,14.03
2023-10-11T20:47:18.667Z,14.00
2023-10-11T20:49:51.237Z,13.99
2023-10-11T20:52:21.594Z,13.98
2023-10-11T20:54:52.069Z,13.86
2023-10-11T20:57:24.967Z,13.82
2023-10-11T20:59:55.333Z,13.84
2023-10-11T21:02:28.852Z,13.72
2023-10-11T21:04:59.722Z,13.64
2023-10-11T21:07:30.158Z,13.57
2023-10-11T21:10:00.610Z,13.48
2023-10-11T21:12:33.546Z,13.37
2023-10-11T21:15:04.605Z,13.36
2023-10-11T21:17:35.313Z,13.47
2023-10-11T21:20:05.966Z,13.48
2023-10-11T21:22:36.246Z,13.44
2023-10-11T21:25:06.705Z,13.27
2023-10-11T21:27:39.642Z,13.26
2023-10-11T21:30:12.614Z,13.22
2023-10-11T21:32:43.433Z,13.15
2023-10-11T21:35:22.570Z,13.12
2023-10-11T21:37:53.227Z,13.08
2023-10-11T21:40:26.193Z,13.09
2023-10-11T21:43:01.309Z,13.14
2023-10-11T21:45:32.766Z,13.13
2023-10-11T21:48:07.763Z,13.22
2023-10-11T21:50:38.804Z,13.15
2023-10-11T21:53:09.775Z,13.18
2023-10-11T21:55:42.642Z,13.12
2023-10-11T21:58:16.650Z,13.11
2023-10-11T22:00:53.710Z,13.15
2023-10-11T22:03:24.728Z,13.12
2023-10-11T22:05:55.693Z,13.05
2023-10-11T22:08:27.647Z,12.98
2023-10-11T22:11:01.052Z,12.94
2023-10-11T22:13:36.003Z,12.89
2023-10-11T22:16:06.371Z,12.78
2023-10-11T22:18:36.670Z,12.75
2023-10-11T22:21:08.547Z,12.80
2023-10-11T22:23:38.786Z,12.86
2023-10-11T22:26:29.042Z,12.88
2023-10-11T22:31:53.562Z,12.87
2023-10-11T22:34:23.868Z,12.75
2023-10-11T22:36:54.184Z,12.71
2023-10-11T22:39:26.212Z,12.77
2023-10-11T22:41:56.880Z,12.67
2023-10-11T22:44:31.483Z,12.52
2023-10-11T22:47:02.761Z,12.30
2023-10-11T22:49:33.242Z,12.37
2023-10-11T22:52:03.492Z,12.44
2023-10-11T22:54:33.796Z,12.38
2023-10-11T22:57:04.046Z,12.39
2023-10-11T22:59:37.076Z,12.33
2023-10-11T23:02:18.280Z,12.34
2023-10-11T23:04:49.573Z,12.27
2023-10-11T23:07:19.893Z,12.28
2023-10-11T23:09:53.212Z,12.29
2023-10-11T23:12:26.120Z,12.22
2023-10-11T23:15:00.453Z,12.19
2023-10-11T23:17:30.908Z,12.14
2023-10-11T23:20:09.687Z,12.16
2023-10-11T23:22:40.659Z,12.18
2023-10-11T23:25:11.556Z,12.20
2023-10-11T23:27:45.787Z,12.15
2023-10-11T23:30:21.543Z,12.01
2023-10-11T23:33:08.757Z,12.00
2023-10-11T23:35:42.289Z,11.97
2023-10-11T23:38:30.008Z,11.98
2023-10-11T23:41:14.943Z,11.99
2023-10-11T23:43:48.139Z,11.97
2023-10-11T23:46:27.487Z,12.02
2023-10-11T23:49:08.280Z,11.99
2023-10-11T23:51:43.278Z,11.96
2023-10-11T23:54:15.075Z,11.91
2023-10-11T23:56:47.376Z,11.96
2023-10-11T23:59:31.925Z,11.99
